Terminal Aerodrome Forecast
Issued by NWS Duluth, MN

Home | Current Version | Previous Version | Text Only | Print | Product List | Glossary On
Versions: 1 2 3 4 5 6 7 8 9 10 11 12 13 14 15 16 17 18 19 20 21 22 23
000
FTUS43 KDLH 250100 AAA
TAFDLH
TAF AMD
KDLH 250153Z 2502/2524 34018G24KT P6SM -SN BKN018 OVC050
     FM250500 33013KT P6SM SCT018 BKN050
     FM251000 31009KT P6SM FEW015 SCT040
     FM251700 22005KT P6SM BKN040=

USA.gov is the U.S. government's official web portal to all federal, state and local government web resources and services.